Terminal Aerodrome Forecast
Issued by NWS Sioux Falls, SD

Home | Current Version | Previous Version | Graphics & Text | Print | Product List | Glossary Off
Versions: 1 2 3 4 5 6 7 8 9 10 11 12 13 14 15 16 17 18

168
FTUS43 KFSD 212049 AAB
TAFFSD
TAF AMD
KFSD 212049Z 2121/2218 11010KT P6SM BKN030
     FM212300 08007KT P6SM BKN035
     FM220100 VRB04KT P6SM SCT030 BKN250
     FM221100 33006KT P6SM SCT015
     FM221400 33008KT P6SM FEW250=

USA.gov is the U.S. government's official web portal to all federal, state and local government web resources and services.